sensor_id;sensor_type;location;lat;lon;timestamp;P1;durP1;ratioP1;P2;durP2;ratioP2
17598;SDS011;8918;52.092;5.232;2023-12-07T00:00:50;28.77;;;18.17;;
17598;SDS011;8918;52.092;5.232;2023-12-07T00:03:16;29.97;;;18.87;;
17598;SDS011;8918;52.092;5.232;2023-12-07T00:05:42;31.17;;;19.13;;
17598;SDS011;8918;52.092;5.232;2023-12-07T00:08:10;33.90;;;20.00;;
17598;SDS011;8918;52.092;5.232;2023-12-07T00:10:36;31.43;;;19.87;;
17598;SDS011;8918;52.092;5.232;2023-12-07T00:13:03;33.57;;;19.73;;
17598;SDS011;8918;52.092;5.232;2023-12-07T00:15:28;32.63;;;20.83;;
17598;SDS011;8918;52.092;5.232;2023-12-07T00:17:54;29.23;;;19.10;;
17598;SDS011;8918;52.092;5.232;2023-12-07T00:20:19;32.77;;;19.87;;
17598;SDS011;8918;52.092;5.232;2023-12-07T00:22:45;30.60;;;19.00;;
17598;SDS011;8918;52.092;5.232;2023-12-07T00:25:11;29.33;;;18.63;;
17598;SDS011;8918;52.092;5.232;2023-12-07T00:27:36;26.00;;;17.93;;
17598;SDS011;8918;52.092;5.232;2023-12-07T00:30:02;27.30;;;17.77;;
17598;SDS011;8918;52.092;5.232;2023-12-07T00:32:28;28.07;;;18.10;;
17598;SDS011;8918;52.092;5.232;2023-12-07T00:34:54;24.20;;;16.87;;
17598;SDS011;8918;52.092;5.232;2023-12-07T00:37:20;27.30;;;17.90;;
17598;SDS011;8918;52.092;5.232;2023-12-07T00:39:45;26.43;;;17.70;;
17598;SDS011;8918;52.092;5.232;2023-12-07T00:42:11;29.43;;;18.43;;
17598;SDS011;8918;52.092;5.232;2023-12-07T00:44:40;31.13;;;19.37;;
17598;SDS011;8918;52.092;5.232;2023-12-07T00:47:06;32.03;;;20.10;;
17598;SDS011;8918;52.092;5.232;2023-12-07T00:49:31;32.03;;;18.73;;
17598;SDS011;8918;52.092;5.232;2023-12-07T00:51:57;28.83;;;17.80;;
17598;SDS011;8918;52.092;5.232;2023-12-07T00:54:23;26.13;;;15.90;;
17598;SDS011;8918;52.092;5.232;2023-12-07T00:56:48;26.47;;;16.70;;
17598;SDS011;8918;52.092;5.232;2023-12-07T00:59:14;22.10;;;15.03;;
17598;SDS011;8918;52.092;5.232;2023-12-07T01:01:39;22.13;;;14.73;;
17598;SDS011;8918;52.092;5.232;2023-12-07T01:04:05;22.87;;;14.70;;
17598;SDS011;8918;52.092;5.232;2023-12-07T01:06:31;20.60;;;14.07;;
17598;SDS011;8918;52.092;5.232;2023-12-07T01:08:56;21.37;;;14.03;;
17598;SDS011;8918;52.092;5.232;2023-12-07T01:11:22;20.70;;;13.50;;
17598;SDS011;8918;52.092;5.232;2023-12-07T01:13:48;21.97;;;13.83;;
17598;SDS011;8918;52.092;5.232;2023-12-07T01:16:14;21.37;;;13.43;;
17598;SDS011;8918;52.092;5.232;2023-12-07T01:18:39;20.53;;;14.03;;
17598;SDS011;8918;52.092;5.232;2023-12-07T01:21:05;18.77;;;13.00;;
17598;SDS011;8918;52.092;5.232;2023-12-07T01:23:31;17.80;;;12.73;;
17598;SDS011;8918;52.092;5.232;2023-12-07T01:25:57;23.50;;;13.60;;
17598;SDS011;8918;52.092;5.232;2023-12-07T01:28:22;19.03;;;13.37;;
17598;SDS011;8918;52.092;5.232;2023-12-07T01:30:48;22.47;;;13.03;;
17598;SDS011;8918;52.092;5.232;2023-12-07T01:33:13;17.70;;;12.00;;
17598;SDS011;8918;52.092;5.232;2023-12-07T01:35:40;18.93;;;12.57;;
17598;SDS011;8918;52.092;5.232;2023-12-07T01:38:05;19.57;;;12.20;;
17598;SDS011;8918;52.092;5.232;2023-12-07T01:40:31;18.47;;;12.67;;
17598;SDS011;8918;52.092;5.232;2023-12-07T01:42:57;20.73;;;12.13;;
17598;SDS011;8918;52.092;5.232;2023-12-07T01:45:22;19.60;;;12.17;;
17598;SDS011;8918;52.092;5.232;2023-12-07T01:47:49;17.47;;;11.67;;
17598;SDS011;8918;52.092;5.232;2023-12-07T01:50:17;17.40;;;11.70;;
17598;SDS011;8918;52.092;5.232;2023-12-07T01:52:48;17.63;;;11.80;;
17598;SDS011;8918;52.092;5.232;2023-12-07T01:55:17;17.77;;;11.07;;
17598;SDS011;8918;52.092;5.232;2023-12-07T01:57:44;16.50;;;10.87;;
17598;SDS011;8918;52.092;5.232;2023-12-07T02:00:11;19.43;;;11.47;;
17598;SDS011;8918;52.092;5.232;2023-12-07T02:02:37;19.07;;;11.30;;
17598;SDS011;8918;52.092;5.232;2023-12-07T02:05:04;19.10;;;11.93;;
17598;SDS011;8918;52.092;5.232;2023-12-07T02:07:30;14.63;;;10.40;;
17598;SDS011;8918;52.092;5.232;2023-12-07T02:09:57;16.57;;;10.77;;
17598;SDS011;8918;52.092;5.232;2023-12-07T02:12:23;16.57;;;11.07;;
17598;SDS011;8918;52.092;5.232;2023-12-07T02:14:49;14.47;;;10.27;;
17598;SDS011;8918;52.092;5.232;2023-12-07T02:17:18;21.67;;;10.20;;
17598;SDS011;8918;52.092;5.232;2023-12-07T02:22:54;15.23;;;10.63;;
17598;SDS011;8918;52.092;5.232;2023-12-07T02:25:26;15.00;;;10.00;;
17598;SDS011;8918;52.092;5.232;2023-12-07T02:27:57;17.97;;;10.83;;
17598;SDS011;8918;52.092;5.232;2023-12-07T02:30:23;13.90;;;10.30;;
17598;SDS011;8918;52.092;5.232;2023-12-07T02:32:48;15.60;;;10.27;;
17598;SDS011;8918;52.092;5.232;2023-12-07T02:35:14;15.47;;;10.43;;
17598;SDS011;8918;52.092;5.232;2023-12-07T02:37:41;14.67;;;9.60;;
17598;SDS011;8918;52.092;5.232;2023-12-07T02:40:13;15.77;;;9.93;;
17598;SDS011;8918;52.092;5.232;2023-12-07T02:42:42;17.20;;;10.53;;
17598;SDS011;8918;52.092;5.232;2023-12-07T02:45:09;15.73;;;10.30;;
17598;SDS011;8918;52.092;5.232;2023-12-07T02:47:35;14.33;;;9.83;;
17598;SDS011;8918;52.092;5.232;2023-12-07T02:50:05;15.67;;;10.33;;
17598;SDS011;8918;52.092;5.232;2023-12-07T02:52:31;15.30;;;9.87;;
17598;SDS011;8918;52.092;5.232;2023-12-07T02:54:57;15.97;;;10.17;;
17598;SDS011;8918;52.092;5.232;2023-12-07T02:57:23;13.30;;;9.20;;
17598;SDS011;8918;52.092;5.232;2023-12-07T02:59:49;15.93;;;10.13;;
17598;SDS011;8918;52.092;5.232;2023-12-07T03:02:15;14.33;;;9.00;;
17598;SDS011;8918;52.092;5.232;2023-12-07T03:04:40;13.27;;;9.13;;
17598;SDS011;8918;52.092;5.232;2023-12-07T03:07:06;13.73;;;9.17;;
17598;SDS011;8918;52.092;5.232;2023-12-07T03:09:32;14.13;;;9.90;;
17598;SDS011;8918;52.092;5.232;2023-12-07T03:11:58;14.73;;;8.60;;
17598;SDS011;8918;52.092;5.232;2023-12-07T03:14:23;13.50;;;9.27;;
17598;SDS011;8918;52.092;5.232;2023-12-07T03:16:49;13.67;;;9.53;;
17598;SDS011;8918;52.092;5.232;2023-12-07T03:19:14;14.30;;;9.33;;
17598;SDS011;8918;52.092;5.232;2023-12-07T03:21:40;14.30;;;9.77;;
17598;SDS011;8918;52.092;5.232;2023-12-07T03:24:07;15.03;;;9.53;;
17598;SDS011;8918;52.092;5.232;2023-12-07T03:26:33;13.53;;;9.20;;
17598;SDS011;8918;52.092;5.232;2023-12-07T03:28:59;16.00;;;9.07;;
17598;SDS011;8918;52.092;5.232;2023-12-07T03:31:25;13.20;;;9.33;;
17598;SDS011;8918;52.092;5.232;2023-12-07T03:33:50;13.43;;;9.20;;
17598;SDS011;8918;52.092;5.232;2023-12-07T03:36:16;12.47;;;9.00;;
17598;SDS011;8918;52.092;5.232;2023-12-07T03:38:42;15.60;;;9.90;;
17598;SDS011;8918;52.092;5.232;2023-12-07T03:41:07;15.93;;;9.57;;
17598;SDS011;8918;52.092;5.232;2023-12-07T03:43:33;13.90;;;8.90;;
17598;SDS011;8918;52.092;5.232;2023-12-07T03:45:59;13.47;;;9.07;;
17598;SDS011;8918;52.092;5.232;2023-12-07T03:48:24;13.10;;;9.23;;
17598;SDS011;8918;52.092;5.232;2023-12-07T03:50:50;14.23;;;9.37;;
17598;SDS011;8918;52.092;5.232;2023-12-07T03:53:15;13.67;;;9.90;;
17598;SDS011;8918;52.092;5.232;2023-12-07T03:55:41;16.33;;;9.70;;
17598;SDS011;8918;52.092;5.232;2023-12-07T03:58:06;22.47;;;10.60;;
17598;SDS011;8918;52.092;5.232;2023-12-07T04:00:32;26.33;;;11.83;;
17598;SDS011;8918;52.092;5.232;2023-12-07T04:02:58;45.40;;;13.47;;
17598;SDS011;8918;52.092;5.232;2023-12-07T04:05:23;38.67;;;13.20;;
17598;SDS011;8918;52.092;5.232;2023-12-07T04:07:49;25.30;;;12.30;;
17598;SDS011;8918;52.092;5.232;2023-12-07T04:10:14;20.47;;;11.87;;
17598;SDS011;8918;52.092;5.232;2023-12-07T04:12:40;47.03;;;12.53;;
17598;SDS011;8918;52.092;5.232;2023-12-07T04:15:06;35.40;;;14.13;;
17598;SDS011;8918;52.092;5.232;2023-12-07T04:17:32;23.90;;;12.23;;
17598;SDS011;8918;52.092;5.232;2023-12-07T04:19:57;21.50;;;11.57;;
17598;SDS011;8918;52.092;5.232;2023-12-07T04:22:23;24.63;;;12.40;;
17598;SDS011;8918;52.092;5.232;2023-12-07T04:24:48;24.23;;;12.43;;
17598;SDS011;8918;52.092;5.232;2023-12-07T04:27:14;21.73;;;12.13;;
17598;SDS011;8918;52.092;5.232;2023-12-07T04:29:40;18.97;;;11.57;;
17598;SDS011;8918;52.092;5.232;2023-12-07T04:32:06;25.67;;;11.83;;
17598;SDS011;8918;52.092;5.232;2023-12-07T04:34:32;23.27;;;11.23;;
17598;SDS011;8918;52.092;5.232;2023-12-07T04:36:58;33.30;;;13.43;;
17598;SDS011;8918;52.092;5.232;2023-12-07T04:39:24;39.03;;;12.37;;
17598;SDS011;8918;52.092;5.232;2023-12-07T04:41:49;22.20;;;11.23;;
17598;SDS011;8918;52.092;5.232;2023-12-07T04:44:16;22.00;;;12.00;;
17598;SDS011;8918;52.092;5.232;2023-12-07T04:46:42;19.37;;;12.10;;
17598;SDS011;8918;52.092;5.232;2023-12-07T04:49:08;28.37;;;12.57;;
17598;SDS011;8918;52.092;5.232;2023-12-07T04:51:33;21.57;;;11.97;;
17598;SDS011;8918;52.092;5.232;2023-12-07T04:53:59;25.47;;;12.27;;
17598;SDS011;8918;52.092;5.232;2023-12-07T04:56:24;18.30;;;11.60;;
17598;SDS011;8918;52.092;5.232;2023-12-07T04:58:50;21.63;;;12.47;;
17598;SDS011;8918;52.092;5.232;2023-12-07T05:01:16;22.47;;;12.93;;
17598;SDS011;8918;52.092;5.232;2023-12-07T05:03:41;32.60;;;13.30;;
17598;SDS011;8918;52.092;5.232;2023-12-07T05:06:07;27.17;;;12.80;;
17598;SDS011;8918;52.092;5.232;2023-12-07T05:08:32;24.37;;;12.57;;
17598;SDS011;8918;52.092;5.232;2023-12-07T05:10:58;23.37;;;12.07;;
17598;SDS011;8918;52.092;5.232;2023-12-07T05:13:24;21.60;;;12.40;;
17598;SDS011;8918;52.092;5.232;2023-12-07T05:15:49;26.63;;;13.20;;
17598;SDS011;8918;52.092;5.232;2023-12-07T05:18:15;41.73;;;14.43;;
17598;SDS011;8918;52.092;5.232;2023-12-07T05:20:40;29.80;;;12.87;;
17598;SDS011;8918;52.092;5.232;2023-12-07T05:23:06;30.17;;;12.47;;
17598;SDS011;8918;52.092;5.232;2023-12-07T05:25:31;42.27;;;13.57;;
17598;SDS011;8918;52.092;5.232;2023-12-07T05:27:57;46.67;;;13.97;;
17598;SDS011;8918;52.092;5.232;2023-12-07T05:30:23;42.20;;;13.87;;
17598;SDS011;8918;52.092;5.232;2023-12-07T05:32:49;27.43;;;12.37;;
17598;SDS011;8918;52.092;5.232;2023-12-07T05:35:15;93.53;;;15.90;;
17598;SDS011;8918;52.092;5.232;2023-12-07T05:37:41;87.17;;;14.83;;
17598;SDS011;8918;52.092;5.232;2023-12-07T05:40:07;51.80;;;14.47;;
17598;SDS011;8918;52.092;5.232;2023-12-07T05:42:34;55.20;;;14.73;;
17598;SDS011;8918;52.092;5.232;2023-12-07T05:45:00;38.83;;;14.00;;
17598;SDS011;8918;52.092;5.232;2023-12-07T05:47:26;144.20;;;18.80;;
17598;SDS011;8918;52.092;5.232;2023-12-07T05:49:52;71.87;;;17.20;;
17598;SDS011;8918;52.092;5.232;2023-12-07T05:52:17;41.00;;;14.13;;
17598;SDS011;8918;52.092;5.232;2023-12-07T05:54:43;85.70;;;16.20;;
17598;SDS011;8918;52.092;5.232;2023-12-07T05:57:11;64.03;;;15.83;;
17598;SDS011;8918;52.092;5.232;2023-12-07T05:59:38;38.77;;;14.93;;
17598;SDS011;8918;52.092;5.232;2023-12-07T06:02:03;75.83;;;17.70;;
17598;SDS011;8918;52.092;5.232;2023-12-07T06:04:29;93.37;;;17.73;;
17598;SDS011;8918;52.092;5.232;2023-12-07T06:06:55;43.03;;;14.97;;
17598;SDS011;8918;52.092;5.232;2023-12-07T06:09:21;57.97;;;15.50;;
17598;SDS011;8918;52.092;5.232;2023-12-07T06:11:47;83.63;;;16.77;;
17598;SDS011;8918;52.092;5.232;2023-12-07T06:14:13;46.30;;;15.87;;
17598;SDS011;8918;52.092;5.232;2023-12-07T06:16:38;38.87;;;15.60;;
17598;SDS011;8918;52.092;5.232;2023-12-07T06:19:04;70.63;;;18.23;;
17598;SDS011;8918;52.092;5.232;2023-12-07T06:21:30;46.30;;;16.00;;
17598;SDS011;8918;52.092;5.232;2023-12-07T06:23:56;43.97;;;16.20;;
17598;SDS011;8918;52.092;5.232;2023-12-07T06:26:23;54.10;;;15.97;;
17598;SDS011;8918;52.092;5.232;2023-12-07T06:28:49;60.40;;;17.00;;
17598;SDS011;8918;52.092;5.232;2023-12-07T06:31:15;50.90;;;17.23;;
17598;SDS011;8918;52.092;5.232;2023-12-07T06:33:44;51.57;;;16.83;;
17598;SDS011;8918;52.092;5.232;2023-12-07T06:36:10;68.83;;;18.07;;
17598;SDS011;8918;52.092;5.232;2023-12-07T06:38:36;42.93;;;16.73;;
17598;SDS011;8918;52.092;5.232;2023-12-07T06:41:02;48.40;;;17.27;;
17598;SDS011;8918;52.092;5.232;2023-12-07T06:43:27;57.60;;;18.47;;
17598;SDS011;8918;52.092;5.232;2023-12-07T06:45:53;38.10;;;17.13;;
17598;SDS011;8918;52.092;5.232;2023-12-07T06:48:18;40.60;;;16.03;;
17598;SDS011;8918;52.092;5.232;2023-12-07T06:50:45;40.37;;;17.43;;
17598;SDS011;8918;52.092;5.232;2023-12-07T06:53:11;74.20;;;19.23;;
17598;SDS011;8918;52.092;5.232;2023-12-07T06:55:36;41.30;;;17.37;;
17598;SDS011;8918;52.092;5.232;2023-12-07T06:58:02;154.00;;;22.63;;
17598;SDS011;8918;52.092;5.232;2023-12-07T07:00:27;45.80;;;17.33;;
17598;SDS011;8918;52.092;5.232;2023-12-07T07:02:53;56.33;;;17.93;;
17598;SDS011;8918;52.092;5.232;2023-12-07T07:05:18;72.10;;;19.13;;
17598;SDS011;8918;52.092;5.232;2023-12-07T07:07:44;67.37;;;19.60;;
17598;SDS011;8918;52.092;5.232;2023-12-07T07:10:10;72.00;;;17.93;;
17598;SDS011;8918;52.092;5.232;2023-12-07T07:12:37;49.17;;;17.40;;
17598;SDS011;8918;52.092;5.232;2023-12-07T07:15:03;51.70;;;16.57;;
17598;SDS011;8918;52.092;5.232;2023-12-07T07:17:29;48.77;;;16.60;;
17598;SDS011;8918;52.092;5.232;2023-12-07T07:19:54;43.70;;;16.67;;
17598;SDS011;8918;52.092;5.232;2023-12-07T07:22:20;55.93;;;17.33;;
17598;SDS011;8918;52.092;5.232;2023-12-07T07:24:47;54.13;;;16.83;;
17598;SDS011;8918;52.092;5.232;2023-12-07T07:27:12;31.40;;;16.30;;
17598;SDS011;8918;52.092;5.232;2023-12-07T07:29:38;50.40;;;16.77;;
17598;SDS011;8918;52.092;5.232;2023-12-07T07:32:04;52.83;;;17.10;;
17598;SDS011;8918;52.092;5.232;2023-12-07T07:34:30;45.47;;;16.33;;
17598;SDS011;8918;52.092;5.232;2023-12-07T07:36:56;43.10;;;17.17;;
17598;SDS011;8918;52.092;5.232;2023-12-07T07:39:22;41.77;;;16.53;;
17598;SDS011;8918;52.092;5.232;2023-12-07T07:41:47;51.57;;;17.43;;
17598;SDS011;8918;52.092;5.232;2023-12-07T07:44:13;89.47;;;20.27;;
17598;SDS011;8918;52.092;5.232;2023-12-07T07:46:40;35.93;;;15.83;;
17598;SDS011;8918;52.092;5.232;2023-12-07T07:49:06;43.20;;;16.90;;
17598;SDS011;8918;52.092;5.232;2023-12-07T07:51:31;37.43;;;17.07;;
17598;SDS011;8918;52.092;5.232;2023-12-07T07:53:58;37.97;;;17.90;;
17598;SDS011;8918;52.092;5.232;2023-12-07T07:56:24;65.73;;;17.57;;
17598;SDS011;8918;52.092;5.232;2023-12-07T07:58:50;88.10;;;19.07;;
17598;SDS011;8918;52.092;5.232;2023-12-07T08:01:16;47.43;;;16.77;;
17598;SDS011;8918;52.092;5.232;2023-12-07T08:03:41;36.50;;;15.90;;
17598;SDS011;8918;52.092;5.232;2023-12-07T08:06:07;43.90;;;15.13;;
17598;SDS011;8918;52.092;5.232;2023-12-07T08:08:33;44.03;;;16.13;;
17598;SDS011;8918;52.092;5.232;2023-12-07T08:10:59;32.00;;;15.47;;
17598;SDS011;8918;52.092;5.232;2023-12-07T08:13:26;35.80;;;15.67;;
17598;SDS011;8918;52.092;5.232;2023-12-07T08:15:52;44.33;;;16.40;;
17598;SDS011;8918;52.092;5.232;2023-12-07T08:18:18;40.50;;;15.57;;
17598;SDS011;8918;52.092;5.232;2023-12-07T08:20:43;54.90;;;19.60;;
17598;SDS011;8918;52.092;5.232;2023-12-07T08:23:09;50.73;;;16.40;;
17598;SDS011;8918;52.092;5.232;2023-12-07T08:25:35;41.73;;;15.97;;
17598;SDS011;8918;52.092;5.232;2023-12-07T08:28:03;40.37;;;15.17;;
17598;SDS011;8918;52.092;5.232;2023-12-07T08:30:29;42.13;;;17.57;;
17598;SDS011;8918;52.092;5.232;2023-12-07T08:32:55;42.23;;;17.17;;
17598;SDS011;8918;52.092;5.232;2023-12-07T08:35:20;49.70;;;16.97;;
17598;SDS011;8918;52.092;5.232;2023-12-07T08:37:46;36.43;;;14.20;;
17598;SDS011;8918;52.092;5.232;2023-12-07T08:40:13;37.93;;;13.60;;
17598;SDS011;8918;52.092;5.232;2023-12-07T08:42:40;33.63;;;12.63;;
17598;SDS011;8918;52.092;5.232;2023-12-07T08:45:06;40.77;;;12.73;;
17598;SDS011;8918;52.092;5.232;2023-12-07T08:47:32;31.77;;;12.07;;
17598;SDS011;8918;52.092;5.232;2023-12-07T08:49:58;38.83;;;12.27;;
17598;SDS011;8918;52.092;5.232;2023-12-07T08:52:24;30.90;;;12.60;;
17598;SDS011;8918;52.092;5.232;2023-12-07T08:54:49;30.80;;;14.03;;
17598;SDS011;8918;52.092;5.232;2023-12-07T08:57:15;25.43;;;13.20;;
17598;SDS011;8918;52.092;5.232;2023-12-07T08:59:43;27.30;;;12.30;;
17598;SDS011;8918;52.092;5.232;2023-12-07T09:02:08;49.80;;;13.83;;
17598;SDS011;8918;52.092;5.232;2023-12-07T09:04:34;30.93;;;13.40;;
17598;SDS011;8918;52.092;5.232;2023-12-07T09:06:59;48.03;;;12.87;;
17598;SDS011;8918;52.092;5.232;2023-12-07T09:09:25;31.23;;;11.70;;
17598;SDS011;8918;52.092;5.232;2023-12-07T09:11:51;38.70;;;12.63;;
17598;SDS011;8918;52.092;5.232;2023-12-07T09:14:16;28.10;;;13.10;;
17598;SDS011;8918;52.092;5.232;2023-12-07T09:16:43;32.57;;;13.00;;
17598;SDS011;8918;52.092;5.232;2023-12-07T09:19:10;46.10;;;14.80;;
17598;SDS011;8918;52.092;5.232;2023-12-07T09:21:37;33.23;;;13.70;;
17598;SDS011;8918;52.092;5.232;2023-12-07T09:24:03;30.43;;;12.60;;
17598;SDS011;8918;52.092;5.232;2023-12-07T09:26:31;31.40;;;12.80;;
17598;SDS011;8918;52.092;5.232;2023-12-07T09:28:57;28.53;;;11.43;;
17598;SDS011;8918;52.092;5.232;2023-12-07T09:31:22;35.83;;;12.43;;
17598;SDS011;8918;52.092;5.232;2023-12-07T09:33:48;29.33;;;11.47;;
17598;SDS011;8918;52.092;5.232;2023-12-07T09:36:17;33.07;;;10.43;;
17598;SDS011;8918;52.092;5.232;2023-12-07T09:38:43;21.77;;;10.00;;
17598;SDS011;8918;52.092;5.232;2023-12-07T09:41:10;31.80;;;10.43;;
17598;SDS011;8918;52.092;5.232;2023-12-07T09:43:36;24.13;;;10.10;;
17598;SDS011;8918;52.092;5.232;2023-12-07T09:46:02;17.43;;;8.80;;
17598;SDS011;8918;52.092;5.232;2023-12-07T09:48:28;34.27;;;10.00;;
17598;SDS011;8918;52.092;5.232;2023-12-07T09:50:55;20.13;;;8.93;;
17598;SDS011;8918;52.092;5.232;2023-12-07T09:53:21;27.27;;;9.50;;
17598;SDS011;8918;52.092;5.232;2023-12-07T09:55:47;20.20;;;9.27;;
17598;SDS011;8918;52.092;5.232;2023-12-07T09:58:13;20.33;;;8.87;;
17598;SDS011;8918;52.092;5.232;2023-12-07T10:00:39;19.50;;;9.13;;
17598;SDS011;8918;52.092;5.232;2023-12-07T10:03:04;19.90;;;9.30;;
17598;SDS011;8918;52.092;5.232;2023-12-07T10:05:33;22.13;;;9.17;;
17598;SDS011;8918;52.092;5.232;2023-12-07T10:07:59;22.87;;;9.40;;
17598;SDS011;8918;52.092;5.232;2023-12-07T10:10:24;22.07;;;9.43;;
17598;SDS011;8918;52.092;5.232;2023-12-07T10:12:52;20.33;;;9.93;;
17598;SDS011;8918;52.092;5.232;2023-12-07T10:15:19;25.33;;;9.47;;
17598;SDS011;8918;52.092;5.232;2023-12-07T10:17:58;27.07;;;9.07;;
17598;SDS011;8918;52.092;5.232;2023-12-07T10:20:25;40.57;;;12.63;;
17598;SDS011;8918;52.092;5.232;2023-12-07T10:23:08;32.33;;;12.53;;
17598;SDS011;8918;52.092;5.232;2023-12-07T10:25:37;25.53;;;10.77;;
17598;SDS011;8918;52.092;5.232;2023-12-07T10:28:05;22.97;;;10.33;;
17598;SDS011;8918;52.092;5.232;2023-12-07T10:30:32;17.70;;;8.90;;
17598;SDS011;8918;52.092;5.232;2023-12-07T10:33:04;21.73;;;8.67;;
17598;SDS011;8918;52.092;5.232;2023-12-07T10:35:32;21.63;;;8.37;;
17598;SDS011;8918;52.092;5.232;2023-12-07T10:37:57;20.70;;;8.53;;
17598;SDS011;8918;52.092;5.232;2023-12-07T10:40:23;18.43;;;8.50;;
17598;SDS011;8918;52.092;5.232;2023-12-07T10:42:49;19.87;;;8.70;;
17598;SDS011;8918;52.092;5.232;2023-12-07T10:45:21;23.50;;;9.63;;
17598;SDS011;8918;52.092;5.232;2023-12-07T10:47:50;22.77;;;9.60;;
17598;SDS011;8918;52.092;5.232;2023-12-07T10:50:20;23.03;;;10.00;;
17598;SDS011;8918;52.092;5.232;2023-12-07T10:52:48;28.60;;;10.73;;
17598;SDS011;8918;52.092;5.232;2023-12-07T10:55:20;22.97;;;10.17;;
17598;SDS011;8918;52.092;5.232;2023-12-07T10:57:52;24.60;;;10.10;;
17598;SDS011;8918;52.092;5.232;2023-12-07T11:00:21;20.57;;;9.63;;
17598;SDS011;8918;52.092;5.232;2023-12-07T11:02:52;22.53;;;10.80;;
17598;SDS011;8918;52.092;5.232;2023-12-07T11:05:18;23.97;;;10.80;;
17598;SDS011;8918;52.092;5.232;2023-12-07T11:07:50;22.80;;;11.23;;
17598;SDS011;8918;52.092;5.232;2023-12-07T11:10:50;24.27;;;10.80;;
17598;SDS011;8918;52.092;5.232;2023-12-07T11:13:37;25.23;;;10.97;;
17598;SDS011;8918;52.092;5.232;2023-12-07T11:16:04;30.00;;;11.13;;
17598;SDS011;8918;52.092;5.232;2023-12-07T11:18:30;25.33;;;12.60;;
17598;SDS011;8918;52.092;5.232;2023-12-07T11:20:55;31.83;;;12.90;;
17598;SDS011;8918;52.092;5.232;2023-12-07T11:23:21;30.10;;;12.93;;
17598;SDS011;8918;52.092;5.232;2023-12-07T11:25:48;36.97;;;13.37;;
17598;SDS011;8918;52.092;5.232;2023-12-07T11:28:15;34.53;;;13.77;;
17598;SDS011;8918;52.092;5.232;2023-12-07T11:30:41;33.77;;;12.93;;
17598;SDS011;8918;52.092;5.232;2023-12-07T11:33:09;30.10;;;12.70;;
17598;SDS011;8918;52.092;5.232;2023-12-07T11:38:33;29.30;;;12.03;;
17598;SDS011;8918;52.092;5.232;2023-12-07T11:40:59;28.67;;;13.20;;
17598;SDS011;8918;52.092;5.232;2023-12-07T11:46:08;30.07;;;12.93;;
17598;SDS011;8918;52.092;5.232;2023-12-07T11:48:35;30.87;;;12.67;;
17598;SDS011;8918;52.092;5.232;2023-12-07T11:51:01;29.07;;;12.77;;
17598;SDS011;8918;52.092;5.232;2023-12-07T11:53:37;37.67;;;12.80;;
17598;SDS011;8918;52.092;5.232;2023-12-07T11:56:04;28.53;;;12.63;;
17598;SDS011;8918;52.092;5.232;2023-12-07T11:58:31;32.13;;;13.33;;
17598;SDS011;8918;52.092;5.232;2023-12-07T12:00:57;35.53;;;14.07;;
17598;SDS011;8918;52.092;5.232;2023-12-07T12:03:27;36.17;;;14.20;;
17598;SDS011;8918;52.092;5.232;2023-12-07T12:05:53;35.10;;;14.37;;
17598;SDS011;8918;52.092;5.232;2023-12-07T12:08:20;31.23;;;13.53;;
17598;SDS011;8918;52.092;5.232;2023-12-07T12:10:46;34.40;;;13.47;;
17598;SDS011;8918;52.092;5.232;2023-12-07T12:13:14;27.90;;;13.60;;
17598;SDS011;8918;52.092;5.232;2023-12-07T12:15:40;29.80;;;14.07;;
17598;SDS011;8918;52.092;5.232;2023-12-07T12:18:06;33.13;;;14.90;;
17598;SDS011;8918;52.092;5.232;2023-12-07T12:20:32;38.00;;;15.57;;
17598;SDS011;8918;52.092;5.232;2023-12-07T12:22:59;35.97;;;15.47;;
17598;SDS011;8918;52.092;5.232;2023-12-07T12:25:28;31.67;;;14.53;;
17598;SDS011;8918;52.092;5.232;2023-12-07T12:27:56;39.50;;;15.43;;
17598;SDS011;8918;52.092;5.232;2023-12-07T12:30:23;33.17;;;15.67;;
17598;SDS011;8918;52.092;5.232;2023-12-07T12:32:49;31.33;;;14.23;;
17598;SDS011;8918;52.092;5.232;2023-12-07T12:35:15;37.53;;;16.17;;
17598;SDS011;8918;52.092;5.232;2023-12-07T12:37:42;36.97;;;16.63;;
17598;SDS011;8918;52.092;5.232;2023-12-07T12:40:12;39.10;;;16.83;;
17598;SDS011;8918;52.092;5.232;2023-12-07T12:42:40;36.13;;;16.20;;
17598;SDS011;8918;52.092;5.232;2023-12-07T12:45:08;41.27;;;17.53;;
17598;SDS011;8918;52.092;5.232;2023-12-07T12:47:35;41.90;;;17.37;;
17598;SDS011;8918;52.092;5.232;2023-12-07T12:50:01;42.60;;;17.30;;
17598;SDS011;8918;52.092;5.232;2023-12-07T12:52:30;40.53;;;17.00;;
17598;SDS011;8918;52.092;5.232;2023-12-07T12:54:56;37.03;;;15.80;;
17598;SDS011;8918;52.092;5.232;2023-12-07T12:57:22;38.70;;;16.63;;
17598;SDS011;8918;52.092;5.232;2023-12-07T12:59:48;33.40;;;16.03;;
17598;SDS011;8918;52.092;5.232;2023-12-07T13:02:15;33.23;;;15.87;;
17598;SDS011;8918;52.092;5.232;2023-12-07T13:04:40;36.30;;;17.23;;
17598;SDS011;8918;52.092;5.232;2023-12-07T13:07:06;34.80;;;15.97;;
17598;SDS011;8918;52.092;5.232;2023-12-07T13:09:31;33.80;;;16.27;;
17598;SDS011;8918;52.092;5.232;2023-12-07T13:11:57;34.97;;;16.43;;
17598;SDS011;8918;52.092;5.232;2023-12-07T13:14:24;37.93;;;16.67;;
17598;SDS011;8918;52.092;5.232;2023-12-07T13:16:49;30.67;;;15.53;;
17598;SDS011;8918;52.092;5.232;2023-12-07T13:19:15;31.03;;;15.67;;
17598;SDS011;8918;52.092;5.232;2023-12-07T13:21:41;32.37;;;16.90;;
17598;SDS011;8918;52.092;5.232;2023-12-07T13:24:07;29.77;;;15.43;;
17598;SDS011;8918;52.092;5.232;2023-12-07T13:26:37;34.63;;;15.63;;
17598;SDS011;8918;52.092;5.232;2023-12-07T13:29:03;29.67;;;15.93;;
17598;SDS011;8918;52.092;5.232;2023-12-07T13:31:29;32.47;;;15.63;;
17598;SDS011;8918;52.092;5.232;2023-12-07T13:33:54;32.30;;;15.83;;
17598;SDS011;8918;52.092;5.232;2023-12-07T13:36:21;31.50;;;15.43;;
17598;SDS011;8918;52.092;5.232;2023-12-07T13:38:50;33.10;;;15.77;;
17598;SDS011;8918;52.092;5.232;2023-12-07T13:41:16;30.83;;;15.77;;
17598;SDS011;8918;52.092;5.232;2023-12-07T13:43:41;30.67;;;15.77;;
17598;SDS011;8918;52.092;5.232;2023-12-07T13:46:07;34.47;;;16.83;;
17598;SDS011;8918;52.092;5.232;2023-12-07T13:48:33;33.50;;;17.27;;
17598;SDS011;8918;52.092;5.232;2023-12-07T13:50:59;34.70;;;17.23;;
17598;SDS011;8918;52.092;5.232;2023-12-07T13:53:24;30.17;;;17.43;;
17598;SDS011;8918;52.092;5.232;2023-12-07T13:55:50;28.03;;;16.53;;
17598;SDS011;8918;52.092;5.232;2023-12-07T13:58:16;34.17;;;17.07;;
17598;SDS011;8918;52.092;5.232;2023-12-07T14:00:42;32.27;;;16.73;;
17598;SDS011;8918;52.092;5.232;2023-12-07T14:03:10;29.53;;;16.33;;
17598;SDS011;8918;52.092;5.232;2023-12-07T14:05:36;30.00;;;15.93;;
17598;SDS011;8918;52.092;5.232;2023-12-07T14:08:04;32.27;;;17.53;;
17598;SDS011;8918;52.092;5.232;2023-12-07T14:10:30;32.03;;;17.60;;
17598;SDS011;8918;52.092;5.232;2023-12-07T14:12:56;31.33;;;17.07;;
17598;SDS011;8918;52.092;5.232;2023-12-07T14:15:21;31.97;;;17.43;;
17598;SDS011;8918;52.092;5.232;2023-12-07T14:17:47;32.67;;;17.50;;
17598;SDS011;8918;52.092;5.232;2023-12-07T14:20:12;34.63;;;19.10;;
17598;SDS011;8918;52.092;5.232;2023-12-07T14:22:39;36.80;;;20.03;;
17598;SDS011;8918;52.092;5.232;2023-12-07T14:25:04;35.23;;;19.40;;
17598;SDS011;8918;52.092;5.232;2023-12-07T14:27:30;34.67;;;18.40;;
17598;SDS011;8918;52.092;5.232;2023-12-07T14:29:56;35.33;;;19.20;;
17598;SDS011;8918;52.092;5.232;2023-12-07T14:32:21;34.73;;;19.03;;
17598;SDS011;8918;52.092;5.232;2023-12-07T14:34:47;36.60;;;18.80;;
17598;SDS011;8918;52.092;5.232;2023-12-07T14:37:13;37.50;;;19.00;;
17598;SDS011;8918;52.092;5.232;2023-12-07T14:39:39;36.10;;;18.90;;